In Rescue
 
Open Full Screen Window  High Contrast Mode
Wind Gusting 00 knots
07
November 28, 2020 12:56 AM EST
Weather Information
Wind Direction
  260 °
Wind Speed
  07 kt (8 mph)
Wind Gust
  00 kt (0 mph)
Altimeter
30.00 in
Visibility
10 SM
Temperature
-01° C
30° F
Dewpoint
-03° C
27° F
Humidity
86%
1hr Rain Fall
00.00 in.
24hr Rain Fall
00.00 in.
Sky Condition
Scattered @ 4,600 ft
VFR

METAR KY31 280556Z AUTO 26007KT 10SM SCT046 M01/M03 A3000 RMK AO2 T10081035 10032 21010 400471010

FAA Disclaimer: The data displayed is for advisory purposes only and is not to be used for flight planning or operations.